sensor_id;sensor_type;location;lat;lon;timestamp;pressure;altitude;pressure_sealevel;temperature;humidity
75945;BME280;64628;50.104;14.614;2023-07-13T00:02:24;98260.02;;;24.08;40.73
75945;BME280;64628;50.104;14.614;2023-07-13T00:04:49;98257.28;;;24.58;40.86
75945;BME280;64628;50.104;14.614;2023-07-13T00:07:14;98258.28;;;24.62;40.82
75945;BME280;64628;50.104;14.614;2023-07-13T00:09:39;98262.95;;;24.65;40.60
75945;BME280;64628;50.104;14.614;2023-07-13T00:12:19;98262.19;;;24.68;40.62
75945;BME280;64628;50.104;14.614;2023-07-13T00:14:30;98263.17;;;24.49;40.66
75945;BME280;64628;50.104;14.614;2023-07-13T00:16:55;98264.31;;;24.50;40.68
75945;BME280;64628;50.104;14.614;2023-07-13T00:19:21;98265.13;;;24.74;40.61
75945;BME280;64628;50.104;14.614;2023-07-13T00:21:46;98270.65;;;24.78;40.48
75945;BME280;64628;50.104;14.614;2023-07-13T00:24:15;98276.15;;;24.30;40.31
75945;BME280;64628;50.104;14.614;2023-07-13T00:26:37;98272.72;;;24.83;39.94
75945;BME280;64628;50.104;14.614;2023-07-13T00:29:02;98268.80;;;24.89;39.82
75945;BME280;64628;50.104;14.614;2023-07-13T00:31:27;98264.07;;;24.41;40.05
75945;BME280;64628;50.104;14.614;2023-07-13T00:33:52;98260.91;;;24.67;40.14
75945;BME280;64628;50.104;14.614;2023-07-13T00:36:20;98256.56;;;24.88;40.00
75945;BME280;64628;50.104;14.614;2023-07-13T00:38:42;98256.23;;;24.68;39.68
75945;BME280;64628;50.104;14.614;2023-07-13T00:41:08;98256.00;;;24.72;39.63
75945;BME280;64628;50.104;14.614;2023-07-13T00:43:34;98253.40;;;25.05;39.59
75945;BME280;64628;50.104;14.614;2023-07-13T00:46:11;98242.98;;;25.08;39.62
75945;BME280;64628;50.104;14.614;2023-07-13T00:48:27;98238.15;;;25.15;39.83
75945;BME280;64628;50.104;14.614;2023-07-13T00:50:52;98231.81;;;25.17;39.88
75945;BME280;64628;50.104;14.614;2023-07-13T00:53:15;98226.84;;;24.70;40.03
75945;BME280;64628;50.104;14.614;2023-07-13T00:55:40;98225.51;;;25.14;40.03
75945;BME280;64628;50.104;14.614;2023-07-13T00:58:06;98219.05;;;24.88;39.91
75945;BME280;64628;50.104;14.614;2023-07-13T01:00:31;98219.07;;;24.90;39.77
75945;BME280;64628;50.104;14.614;2023-07-13T01:02:57;98220.44;;;25.15;40.04
75945;BME280;64628;50.104;14.614;2023-07-13T01:05:24;98221.48;;;24.90;40.10
75945;BME280;64628;50.104;14.614;2023-07-13T01:07:48;98222.67;;;24.66;40.07
75945;BME280;64628;50.104;14.614;2023-07-13T01:10:12;98225.87;;;24.88;39.87
75945;BME280;64628;50.104;14.614;2023-07-13T01:12:37;98228.50;;;24.64;40.07
75945;BME280;64628;50.104;14.614;2023-07-13T01:15:03;98226.46;;;24.88;40.04
75945;BME280;64628;50.104;14.614;2023-07-13T01:17:27;98227.36;;;24.89;39.79
75945;BME280;64628;50.104;14.614;2023-07-13T01:19:53;98223.53;;;24.87;39.57
75945;BME280;64628;50.104;14.614;2023-07-13T01:22:19;98216.27;;;24.87;39.70
75945;BME280;64628;50.104;14.614;2023-07-13T01:24:45;98213.68;;;24.86;39.97
75945;BME280;64628;50.104;14.614;2023-07-13T01:27:09;98207.13;;;25.11;40.13
75945;BME280;64628;50.104;14.614;2023-07-13T01:29:36;98202.77;;;24.62;40.23
75945;BME280;64628;50.104;14.614;2023-07-13T01:31:59;98197.72;;;24.82;40.09
75945;BME280;64628;50.104;14.614;2023-07-13T01:34:24;98199.27;;;25.01;40.32
75945;BME280;64628;50.104;14.614;2023-07-13T01:36:49;98202.41;;;24.46;40.42
75945;BME280;64628;50.104;14.614;2023-07-13T01:39:14;98204.35;;;24.89;40.41
75945;BME280;64628;50.104;14.614;2023-07-13T01:41:40;98202.66;;;24.84;40.42
75945;BME280;64628;50.104;14.614;2023-07-13T01:44:05;98201.47;;;24.83;40.14
75945;BME280;64628;50.104;14.614;2023-07-13T01:46:30;98206.08;;;24.84;39.98
75945;BME280;64628;50.104;14.614;2023-07-13T01:48:56;98202.07;;;24.86;39.96
75945;BME280;64628;50.104;14.614;2023-07-13T01:51:21;98202.06;;;24.67;39.94
75945;BME280;64628;50.104;14.614;2023-07-13T01:53:47;98204.71;;;24.40;40.21
75945;BME280;64628;50.104;14.614;2023-07-13T01:56:12;98206.58;;;24.92;40.28
75945;BME280;64628;50.104;14.614;2023-07-13T01:58:37;98215.59;;;24.74;40.33
75945;BME280;64628;50.104;14.614;2023-07-13T02:01:02;98213.17;;;24.78;40.31
75945;BME280;64628;50.104;14.614;2023-07-13T02:03:28;98211.05;;;25.09;40.26
75945;BME280;64628;50.104;14.614;2023-07-13T02:05:53;98210.38;;;24.64;40.25
75945;BME280;64628;50.104;14.614;2023-07-13T02:08:19;98211.81;;;25.12;40.25
75945;BME280;64628;50.104;14.614;2023-07-13T02:10:45;98207.32;;;24.65;40.35
75945;BME280;64628;50.104;14.614;2023-07-13T02:13:11;98202.45;;;24.65;40.22
75945;BME280;64628;50.104;14.614;2023-07-13T02:15:39;98197.59;;;25.09;40.30
75945;BME280;64628;50.104;14.614;2023-07-13T02:18:03;98201.65;;;25.04;40.46
75945;BME280;64628;50.104;14.614;2023-07-13T02:20:28;98200.99;;;24.56;40.49
75945;BME280;64628;50.104;14.614;2023-07-13T02:22:54;98199.76;;;24.54;40.55
75945;BME280;64628;50.104;14.614;2023-07-13T02:25:19;98201.54;;;24.49;40.62
75945;BME280;64628;50.104;14.614;2023-07-13T02:27:44;98209.36;;;24.48;40.75
75945;BME280;64628;50.104;14.614;2023-07-13T02:30:11;98219.69;;;24.42;40.78
75945;BME280;64628;50.104;14.614;2023-07-13T02:32:35;98225.85;;;24.88;40.95
75945;BME280;64628;50.104;14.614;2023-07-13T02:35:01;98233.86;;;24.88;41.02
75945;BME280;64628;50.104;14.614;2023-07-13T02:37:26;98241.11;;;24.40;40.99
75945;BME280;64628;50.104;14.614;2023-07-13T02:39:52;98240.15;;;24.90;41.07
75945;BME280;64628;50.104;14.614;2023-07-13T02:42:18;98242.32;;;24.58;41.23
75945;BME280;64628;50.104;14.614;2023-07-13T02:44:43;98244.72;;;24.63;41.29
75945;BME280;64628;50.104;14.614;2023-07-13T02:47:08;98245.10;;;24.66;40.92
75945;BME280;64628;50.104;14.614;2023-07-13T02:49:34;98240.99;;;24.91;40.97
75945;BME280;64628;50.104;14.614;2023-07-13T02:52:00;98236.31;;;24.43;40.86
75945;BME280;64628;50.104;14.614;2023-07-13T02:54:25;98244.09;;;25.11;40.86
75945;BME280;64628;50.104;14.614;2023-07-13T02:56:51;98243.83;;;24.64;41.00
75945;BME280;64628;50.104;14.614;2023-07-13T02:59:16;98247.46;;;24.73;41.10
75945;BME280;64628;50.104;14.614;2023-07-13T03:01:42;98248.43;;;24.88;41.64
75945;BME280;64628;50.104;14.614;2023-07-13T03:04:07;98245.66;;;24.43;41.73
75945;BME280;64628;50.104;14.614;2023-07-13T03:06:32;98244.73;;;24.85;41.98
75945;BME280;64628;50.104;14.614;2023-07-13T03:08:57;98250.13;;;24.91;41.96
75945;BME280;64628;50.104;14.614;2023-07-13T03:11:23;98247.19;;;24.97;41.94
75945;BME280;64628;50.104;14.614;2023-07-13T03:13:49;98249.90;;;24.99;41.95
75945;BME280;64628;50.104;14.614;2023-07-13T03:16:15;98248.83;;;25.06;41.91
75945;BME280;64628;50.104;14.614;2023-07-13T03:18:39;98249.21;;;24.52;42.05
75945;BME280;64628;50.104;14.614;2023-07-13T03:21:05;98252.49;;;24.81;41.98
75945;BME280;64628;50.104;14.614;2023-07-13T03:23:30;98255.81;;;25.13;41.82
75945;BME280;64628;50.104;14.614;2023-07-13T03:26:01;98254.82;;;25.17;41.71
75945;BME280;64628;50.104;14.614;2023-07-13T03:28:21;98254.20;;;24.93;40.90
75945;BME280;64628;50.104;14.614;2023-07-13T03:30:47;98259.09;;;24.92;39.99
75945;BME280;64628;50.104;14.614;2023-07-13T03:33:13;98268.71;;;24.67;39.24
75945;BME280;64628;50.104;14.614;2023-07-13T03:35:40;98274.06;;;24.83;39.03
75945;BME280;64628;50.104;14.614;2023-07-13T03:38:04;98277.77;;;24.87;38.85
75945;BME280;64628;50.104;14.614;2023-07-13T03:40:30;98289.45;;;25.01;37.99
75945;BME280;64628;50.104;14.614;2023-07-13T03:42:56;98294.93;;;24.77;37.00
75945;BME280;64628;50.104;14.614;2023-07-13T03:45:21;98303.93;;;24.72;37.24
75945;BME280;64628;50.104;14.614;2023-07-13T03:47:46;98312.57;;;24.70;37.18
75945;BME280;64628;50.104;14.614;2023-07-13T03:50:11;98316.27;;;24.96;37.22
75945;BME280;64628;50.104;14.614;2023-07-13T03:52:36;98319.42;;;24.43;36.98
75945;BME280;64628;50.104;14.614;2023-07-13T03:55:02;98321.32;;;24.93;36.52
75945;BME280;64628;50.104;14.614;2023-07-13T03:57:28;98319.30;;;24.64;36.39
75945;BME280;64628;50.104;14.614;2023-07-13T03:59:54;98321.72;;;24.37;35.21
75945;BME280;64628;50.104;14.614;2023-07-13T04:02:19;98323.50;;;24.57;35.38
75945;BME280;64628;50.104;14.614;2023-07-13T04:04:44;98322.97;;;24.51;35.06
75945;BME280;64628;50.104;14.614;2023-07-13T04:07:09;98326.65;;;24.22;35.38
75945;BME280;64628;50.104;14.614;2023-07-13T04:09:34;98328.32;;;24.36;35.41
75945;BME280;64628;50.104;14.614;2023-07-13T04:12:00;98324.95;;;24.10;35.48
75945;BME280;64628;50.104;14.614;2023-07-13T04:14:25;98333.84;;;23.93;35.57
75945;BME280;64628;50.104;14.614;2023-07-13T04:16:50;98341.31;;;24.08;35.52
75945;BME280;64628;50.104;14.614;2023-07-13T04:19:15;98339.63;;;23.99;35.45
75945;BME280;64628;50.104;14.614;2023-07-13T04:21:40;98337.75;;;23.83;35.58
75945;BME280;64628;50.104;14.614;2023-07-13T04:24:05;98334.43;;;24.09;35.04
75945;BME280;64628;50.104;14.614;2023-07-13T04:26:30;98334.53;;;23.99;34.93
75945;BME280;64628;50.104;14.614;2023-07-13T04:28:55;98340.52;;;24.07;34.92
75945;BME280;64628;50.104;14.614;2023-07-13T04:31:20;98338.81;;;24.09;34.66
75945;BME280;64628;50.104;14.614;2023-07-13T04:33:45;98336.38;;;24.42;34.57
75945;BME280;64628;50.104;14.614;2023-07-13T04:36:10;98336.76;;;24.12;34.79
75945;BME280;64628;50.104;14.614;2023-07-13T04:38:36;98336.47;;;24.15;34.61
75945;BME280;64628;50.104;14.614;2023-07-13T04:41:03;98337.01;;;24.21;34.64
75945;BME280;64628;50.104;14.614;2023-07-13T04:43:26;98339.25;;;23.97;34.16
75945;BME280;64628;50.104;14.614;2023-07-13T04:45:51;98342.67;;;24.14;34.45
75945;BME280;64628;50.104;14.614;2023-07-13T04:48:15;98343.03;;;23.94;34.50
75945;BME280;64628;50.104;14.614;2023-07-13T04:50:41;98344.18;;;23.99;34.40
75945;BME280;64628;50.104;14.614;2023-07-13T04:53:06;98341.26;;;24.08;34.23
75945;BME280;64628;50.104;14.614;2023-07-13T04:55:31;98344.54;;;24.25;34.24
75945;BME280;64628;50.104;14.614;2023-07-13T04:57:57;98347.87;;;24.00;34.41
75945;BME280;64628;50.104;14.614;2023-07-13T05:00:21;98350.71;;;24.20;34.44
75945;BME280;64628;50.104;14.614;2023-07-13T05:02:46;98358.35;;;23.91;34.54
75945;BME280;64628;50.104;14.614;2023-07-13T05:05:11;98356.76;;;23.78;34.77
75945;BME280;64628;50.104;14.614;2023-07-13T05:07:36;98355.81;;;23.73;34.85
75945;BME280;64628;50.104;14.614;2023-07-13T05:10:02;98358.74;;;23.81;34.97
75945;BME280;64628;50.104;14.614;2023-07-13T05:12:27;98364.53;;;24.19;35.06
75945;BME280;64628;50.104;14.614;2023-07-13T05:14:52;98372.02;;;24.00;35.17
75945;BME280;64628;50.104;14.614;2023-07-13T05:17:18;98369.91;;;24.23;35.06
75945;BME280;64628;50.104;14.614;2023-07-13T05:19:43;98367.29;;;24.15;35.11
75945;BME280;64628;50.104;14.614;2023-07-13T05:22:08;98364.31;;;23.79;35.39
75945;BME280;64628;50.104;14.614;2023-07-13T05:24:33;98365.11;;;23.94;35.56
75945;BME280;64628;50.104;14.614;2023-07-13T05:26:59;98367.68;;;23.96;35.74
75945;BME280;64628;50.104;14.614;2023-07-13T05:29:24;98372.47;;;23.78;35.87
75945;BME280;64628;50.104;14.614;2023-07-13T05:31:50;98379.82;;;24.02;35.89
75945;BME280;64628;50.104;14.614;2023-07-13T05:34:15;98380.86;;;24.03;35.70
75945;BME280;64628;50.104;14.614;2023-07-13T05:36:40;98384.99;;;23.67;35.99
75945;BME280;64628;50.104;14.614;2023-07-13T05:39:05;98385.13;;;24.02;35.92
75945;BME280;64628;50.104;14.614;2023-07-13T05:41:30;98394.30;;;23.87;35.92
75945;BME280;64628;50.104;14.614;2023-07-13T05:43:55;98400.88;;;23.81;36.15
75945;BME280;64628;50.104;14.614;2023-07-13T05:46:20;98403.56;;;24.05;35.93
75945;BME280;64628;50.104;14.614;2023-07-13T05:48:45;98406.35;;;24.40;35.72
75945;BME280;64628;50.104;14.614;2023-07-13T05:51:10;98405.03;;;24.26;35.69
75945;BME280;64628;50.104;14.614;2023-07-13T05:53:35;98412.18;;;24.36;35.72
75945;BME280;64628;50.104;14.614;2023-07-13T05:56:00;98417.09;;;24.82;35.12
75945;BME280;64628;50.104;14.614;2023-07-13T05:58:25;98416.25;;;24.34;35.05
75945;BME280;64628;50.104;14.614;2023-07-13T06:00:59;98416.41;;;24.53;35.16
75945;BME280;64628;50.104;14.614;2023-07-13T06:03:15;98418.14;;;24.96;34.60
75945;BME280;64628;50.104;14.614;2023-07-13T06:05:40;98419.80;;;24.77;34.80
75945;BME280;64628;50.104;14.614;2023-07-13T06:08:06;98422.41;;;24.89;35.16
75945;BME280;64628;50.104;14.614;2023-07-13T06:10:32;98427.57;;;24.99;34.65
75945;BME280;64628;50.104;14.614;2023-07-13T06:12:55;98422.62;;;25.28;34.50
75945;BME280;64628;50.104;14.614;2023-07-13T06:15:20;98427.09;;;24.89;34.61
75945;BME280;64628;50.104;14.614;2023-07-13T06:17:46;98423.00;;;25.24;34.45
75945;BME280;64628;50.104;14.614;2023-07-13T06:20:11;98425.34;;;25.30;34.36
75945;BME280;64628;50.104;14.614;2023-07-13T06:22:37;98429.84;;;25.28;33.91
75945;BME280;64628;50.104;14.614;2023-07-13T06:25:04;98431.71;;;25.42;33.90
75945;BME280;64628;50.104;14.614;2023-07-13T06:27:29;98435.28;;;25.60;33.80
75945;BME280;64628;50.104;14.614;2023-07-13T06:29:55;98435.49;;;25.54;33.67
75945;BME280;64628;50.104;14.614;2023-07-13T06:32:21;98439.83;;;25.47;34.19
75945;BME280;64628;50.104;14.614;2023-07-13T06:34:46;98441.17;;;25.41;34.27
75945;BME280;64628;50.104;14.614;2023-07-13T06:37:12;98441.41;;;25.53;34.08
75945;BME280;64628;50.104;14.614;2023-07-13T06:39:38;98442.65;;;25.20;34.21
75945;BME280;64628;50.104;14.614;2023-07-13T06:42:05;98440.92;;;25.14;34.44
75945;BME280;64628;50.104;14.614;2023-07-13T06:44:29;98439.23;;;25.59;35.07
75945;BME280;64628;50.104;14.614;2023-07-13T06:46:56;98438.20;;;25.13;35.23
75945;BME280;64628;50.104;14.614;2023-07-13T06:49:21;98438.72;;;25.10;35.19
75945;BME280;64628;50.104;14.614;2023-07-13T06:51:47;98436.39;;;25.14;34.97
75945;BME280;64628;50.104;14.614;2023-07-13T06:54:13;98443.39;;;25.31;35.16
75945;BME280;64628;50.104;14.614;2023-07-13T06:56:38;98443.78;;;25.41;34.63
75945;BME280;64628;50.104;14.614;2023-07-13T06:59:04;98450.37;;;25.54;34.55
75945;BME280;64628;50.104;14.614;2023-07-13T07:01:30;98450.01;;;25.68;34.47
75945;BME280;64628;50.104;14.614;2023-07-13T07:03:56;98454.35;;;25.80;34.34
75945;BME280;64628;50.104;14.614;2023-07-13T07:06:23;98455.03;;;25.72;34.51
75945;BME280;64628;50.104;14.614;2023-07-13T07:08:48;98453.53;;;26.05;33.45
75945;BME280;64628;50.104;14.614;2023-07-13T07:11:18;98458.11;;;26.17;33.31
75945;BME280;64628;50.104;14.614;2023-07-13T07:13:39;98463.51;;;26.31;33.39
75945;BME280;64628;50.104;14.614;2023-07-13T07:16:06;98466.70;;;26.39;32.87
75945;BME280;64628;50.104;14.614;2023-07-13T07:18:31;98461.97;;;26.12;32.55
75945;BME280;64628;50.104;14.614;2023-07-13T07:20:57;98457.91;;;26.43;32.72
75945;BME280;64628;50.104;14.614;2023-07-13T07:23:23;98461.05;;;26.79;32.76
75945;BME280;64628;50.104;14.614;2023-07-13T07:25:48;98464.66;;;26.46;32.72
75945;BME280;64628;50.104;14.614;2023-07-13T07:28:16;98471.35;;;26.58;32.29
75945;BME280;64628;50.104;14.614;2023-07-13T07:30:42;98474.96;;;26.45;32.73
75945;BME280;64628;50.104;14.614;2023-07-13T07:33:06;98476.13;;;26.88;32.25
75945;BME280;64628;50.104;14.614;2023-07-13T07:35:31;98473.27;;;27.22;31.59
75945;BME280;64628;50.104;14.614;2023-07-13T07:37:57;98480.31;;;27.29;31.19
75945;BME280;64628;50.104;14.614;2023-07-13T07:40:23;98481.04;;;27.39;30.92
75945;BME280;64628;50.104;14.614;2023-07-13T07:42:49;98480.31;;;27.40;30.91
75945;BME280;64628;50.104;14.614;2023-07-13T07:45:15;98479.30;;;27.12;30.72
75945;BME280;64628;50.104;14.614;2023-07-13T07:47:40;98478.56;;;27.40;31.07
75945;BME280;64628;50.104;14.614;2023-07-13T07:50:07;98479.61;;;27.36;31.53
75945;BME280;64628;50.104;14.614;2023-07-13T07:52:32;98475.47;;;27.41;30.88
75945;BME280;64628;50.104;14.614;2023-07-13T07:54:58;98481.10;;;27.87;30.48
75945;BME280;64628;50.104;14.614;2023-07-13T07:57:24;98482.85;;;27.85;29.58
75945;BME280;64628;50.104;14.614;2023-07-13T07:59:49;98485.40;;;28.27;29.33
75945;BME280;64628;50.104;14.614;2023-07-13T08:02:16;98477.48;;;28.33;29.86
75945;BME280;64628;50.104;14.614;2023-07-13T08:04:46;98481.91;;;28.18;29.00
75945;BME280;64628;50.104;14.614;2023-07-13T08:07:07;98484.20;;;28.30;28.64
75945;BME280;64628;50.104;14.614;2023-07-13T08:09:32;98492.44;;;28.20;29.43
75945;BME280;64628;50.104;14.614;2023-07-13T08:11:58;98497.19;;;27.75;28.27
75945;BME280;64628;50.104;14.614;2023-07-13T08:14:24;98496.03;;;27.78;28.85
75945;BME280;64628;50.104;14.614;2023-07-13T08:16:49;98501.10;;;27.68;28.86
75945;BME280;64628;50.104;14.614;2023-07-13T08:19:15;98503.29;;;27.64;29.10
75945;BME280;64628;50.104;14.614;2023-07-13T08:21:41;98504.25;;;28.17;29.13
75945;BME280;64628;50.104;14.614;2023-07-13T08:24:07;98504.68;;;27.78;28.98
75945;BME280;64628;50.104;14.614;2023-07-13T08:26:33;98506.06;;;27.90;29.40
75945;BME280;64628;50.104;14.614;2023-07-13T08:28:58;98508.07;;;28.02;29.03
75945;BME280;64628;50.104;14.614;2023-07-13T08:31:24;98512.08;;;28.03;29.38
75945;BME280;64628;50.104;14.614;2023-07-13T08:33:50;98509.87;;;27.85;29.18
75945;BME280;64628;50.104;14.614;2023-07-13T08:36:15;98509.21;;;28.04;28.77
75945;BME280;64628;50.104;14.614;2023-07-13T08:38:41;98510.48;;;28.16;28.67
75945;BME280;64628;50.104;14.614;2023-07-13T08:41:13;98508.99;;;28.06;28.42
75945;BME280;64628;50.104;14.614;2023-07-13T08:43:36;98507.63;;;28.09;28.71
75945;BME280;64628;50.104;14.614;2023-07-13T08:46:02;98508.85;;;28.64;28.68
75945;BME280;64628;50.104;14.614;2023-07-13T08:48:27;98506.49;;;28.44;28.60
75945;BME280;64628;50.104;14.614;2023-07-13T08:50:55;98508.97;;;28.55;28.33
75945;BME280;64628;50.104;14.614;2023-07-13T08:53:16;98507.01;;;29.00;26.77
75945;BME280;64628;50.104;14.614;2023-07-13T08:55:41;98508.98;;;28.99;26.70
75945;BME280;64628;50.104;14.614;2023-07-13T08:58:11;98504.98;;;29.51;26.14
75945;BME280;64628;50.104;14.614;2023-07-13T09:00:40;98502.37;;;29.82;26.58
75945;BME280;64628;50.104;14.614;2023-07-13T09:03:00;98506.05;;;29.85;25.94
75945;BME280;64628;50.104;14.614;2023-07-13T09:05:29;98504.66;;;30.20;25.86
75945;BME280;64628;50.104;14.614;2023-07-13T09:08:02;98507.73;;;30.33;25.64
75945;BME280;64628;50.104;14.614;2023-07-13T09:10:18;98510.08;;;30.14;25.11
75945;BME280;64628;50.104;14.614;2023-07-13T09:12:49;98512.82;;;30.58;24.60
75945;BME280;64628;50.104;14.614;2023-07-13T09:15:17;98517.46;;;30.27;25.21
75945;BME280;64628;50.104;14.614;2023-07-13T09:17:37;98516.89;;;30.93;24.87
75945;BME280;64628;50.104;14.614;2023-07-13T09:20:02;98520.22;;;31.13;24.39
75945;BME280;64628;50.104;14.614;2023-07-13T09:22:24;98522.03;;;31.11;24.40
75945;BME280;64628;50.104;14.614;2023-07-13T09:24:55;98525.92;;;30.91;24.06
75945;BME280;64628;50.104;14.614;2023-07-13T09:27:22;98527.48;;;30.85;23.19
75945;BME280;64628;50.104;14.614;2023-07-13T09:29:45;98532.66;;;30.66;23.61
75945;BME280;64628;50.104;14.614;2023-07-13T09:32:09;98540.91;;;30.60;23.37
75945;BME280;64628;50.104;14.614;2023-07-13T09:34:32;98540.26;;;30.21;23.00
75945;BME280;64628;50.104;14.614;2023-07-13T09:36:57;98538.07;;;30.13;23.44
75945;BME280;64628;50.104;14.614;2023-07-13T09:39:27;98536.58;;;30.09;22.76
75945;BME280;64628;50.104;14.614;2023-07-13T09:41:53;98547.54;;;30.15;22.62
75945;BME280;64628;50.104;14.614;2023-07-13T09:44:17;98551.39;;;30.22;23.01
75945;BME280;64628;50.104;14.614;2023-07-13T09:46:45;98549.79;;;30.26;23.34
75945;BME280;64628;50.104;14.614;2023-07-13T09:49:08;98552.36;;;30.49;22.73
75945;BME280;64628;50.104;14.614;2023-07-13T09:51:32;98554.19;;;30.31;23.63
75945;BME280;64628;50.104;14.614;2023-07-13T09:53:57;98554.86;;;30.40;23.62
75945;BME280;64628;50.104;14.614;2023-07-13T09:56:26;98551.98;;;30.44;23.18
75945;BME280;64628;50.104;14.614;2023-07-13T09:58:49;98551.02;;;31.15;22.60
75945;BME280;64628;50.104;14.614;2023-07-13T10:01:14;98555.95;;;31.07;22.28
75945;BME280;64628;50.104;14.614;2023-07-13T10:06:13;98560.89;;;31.61;21.14
75945;BME280;64628;50.104;14.614;2023-07-13T10:08:31;98567.63;;;32.02;22.02
75945;BME280;64628;50.104;14.614;2023-07-13T10:11:00;98571.02;;;32.47;19.95
75945;BME280;64628;50.104;14.614;2023-07-13T10:13:29;98571.95;;;32.41;19.24
75945;BME280;64628;50.104;14.614;2023-07-13T10:15:48;98568.90;;;32.47;18.04
75945;BME280;64628;50.104;14.614;2023-07-13T10:18:14;98562.44;;;33.10;17.94
75945;BME280;64628;50.104;14.614;2023-07-13T10:20:40;98563.50;;;32.89;19.55
75945;BME280;64628;50.104;14.614;2023-07-13T10:23:11;98567.19;;;32.75;19.33
75945;BME280;64628;50.104;14.614;2023-07-13T10:25:34;98568.45;;;32.44;19.41
75945;BME280;64628;50.104;14.614;2023-07-13T10:28:03;98566.69;;;31.63;19.57
75945;BME280;64628;50.104;14.614;2023-07-13T10:30:25;98561.86;;;32.29;19.60
75945;BME280;64628;50.104;14.614;2023-07-13T10:32:48;98564.01;;;32.34;20.51
75945;BME280;64628;50.104;14.614;2023-07-13T10:35:16;98561.27;;;32.49;19.76
75945;BME280;64628;50.104;14.614;2023-07-13T10:37:44;98557.37;;;32.83;18.64
75945;BME280;64628;50.104;14.614;2023-07-13T10:40:06;98554.38;;;32.14;19.13
75945;BME280;64628;50.104;14.614;2023-07-13T10:42:34;98545.46;;;31.89;19.25
75945;BME280;64628;50.104;14.614;2023-07-13T10:44:56;98547.12;;;31.89;19.28
75945;BME280;64628;50.104;14.614;2023-07-13T10:47:22;98551.49;;;31.45;19.54
75945;BME280;64628;50.104;14.614;2023-07-13T10:49:52;98547.52;;;31.63;19.57
75945;BME280;64628;50.104;14.614;2023-07-13T10:54:39;98544.91;;;32.03;19.64
75945;BME280;64628;50.104;14.614;2023-07-13T10:57:15;98539.62;;;32.35;20.09
75945;BME280;64628;50.104;14.614;2023-07-13T10:59:30;98537.15;;;32.66;19.07
75945;BME280;64628;50.104;14.614;2023-07-13T11:01:58;98535.84;;;33.24;18.84
75945;BME280;64628;50.104;14.614;2023-07-13T11:04:22;98537.83;;;33.46;18.18
75945;BME280;64628;50.104;14.614;2023-07-13T11:06:48;98536.05;;;33.57;18.23
75945;BME280;64628;50.104;14.614;2023-07-13T11:09:34;98538.09;;;33.11;18.38
75945;BME280;64628;50.104;14.614;2023-07-13T11:11:38;98530.09;;;32.79;18.34
75945;BME280;64628;50.104;14.614;2023-07-13T11:14:05;98535.92;;;32.82;18.81
75945;BME280;64628;50.104;14.614;2023-07-13T11:16:37;98526.75;;;33.13;18.91
75945;BME280;64628;50.104;14.614;2023-07-13T11:21:22;98519.51;;;33.56;17.52
75945;BME280;64628;50.104;14.614;2023-07-13T11:23:52;98516.76;;;33.75;17.84
75945;BME280;64628;50.104;14.614;2023-07-13T11:28:38;98518.59;;;34.20;17.47
75945;BME280;64628;50.104;14.614;2023-07-13T11:31:14;98510.17;;;34.49;17.44
75945;BME280;64628;50.104;14.614;2023-07-13T11:35:59;98508.71;;;34.16;17.38
75945;BME280;64628;50.104;14.614;2023-07-13T11:38:22;98512.57;;;34.21;16.89
75945;BME280;64628;50.104;14.614;2023-07-13T11:40:47;98507.90;;;33.99;16.86
75945;BME280;64628;50.104;14.614;2023-07-13T11:43:13;98501.84;;;34.57;15.87
75945;BME280;64628;50.104;14.614;2023-07-13T11:45:37;98505.34;;;34.52;14.86
75945;BME280;64628;50.104;14.614;2023-07-13T11:48:02;98499.56;;;34.10;14.94
75945;BME280;64628;50.104;14.614;2023-07-13T11:50:28;98492.86;;;33.75;15.33
75945;BME280;64628;50.104;14.614;2023-07-13T11:52:54;98484.57;;;33.33;15.29
75945;BME280;64628;50.104;14.614;2023-07-13T11:55:21;98488.21;;;32.98;16.05
75945;BME280;64628;50.104;14.614;2023-07-13T11:57:47;98494.75;;;32.81;16.51
75945;BME280;64628;50.104;14.614;2023-07-13T12:00:13;98498.60;;;32.45;17.40
75945;BME280;64628;50.104;14.614;2023-07-13T12:02:39;98498.12;;;32.07;18.11
75945;BME280;64628;50.104;14.614;2023-07-13T12:05:03;98507.44;;;32.08;17.80
75945;BME280;64628;50.104;14.614;2023-07-13T12:07:30;98505.35;;;31.56;17.52
75945;BME280;64628;50.104;14.614;2023-07-13T12:09:53;98501.48;;;31.55;17.52
75945;BME280;64628;50.104;14.614;2023-07-13T12:12:21;98503.68;;;31.62;17.52
75945;BME280;64628;50.104;14.614;2023-07-13T12:14:44;98506.15;;;31.29;17.79
75945;BME280;64628;50.104;14.614;2023-07-13T12:17:15;98511.23;;;31.10;18.54
75945;BME280;64628;50.104;14.614;2023-07-13T12:19:36;98509.67;;;31.14;18.35
75945;BME280;64628;50.104;14.614;2023-07-13T12:22:01;98508.18;;;30.89;18.16
75945;BME280;64628;50.104;14.614;2023-07-13T12:24:27;98507.72;;;30.72;18.24
75945;BME280;64628;50.104;14.614;2023-07-13T12:26:54;98509.14;;;30.38;18.59
75945;BME280;64628;50.104;14.614;2023-07-13T12:29:18;98511.88;;;30.45;18.74
75945;BME280;64628;50.104;14.614;2023-07-13T12:31:45;98510.02;;;30.30;19.09
75945;BME280;64628;50.104;14.614;2023-07-13T12:34:12;98509.66;;;30.20;19.60
75945;BME280;64628;50.104;14.614;2023-07-13T12:36:37;98510.56;;;30.21;19.37
75945;BME280;64628;50.104;14.614;2023-07-13T12:39:06;98514.35;;;30.17;19.14
75945;BME280;64628;50.104;14.614;2023-07-13T12:41:26;98511.35;;;30.15;19.51
75945;BME280;64628;50.104;14.614;2023-07-13T12:43:52;98505.89;;;30.28;20.13
75945;BME280;64628;50.104;14.614;2023-07-13T12:46:20;98507.15;;;30.45;19.45
75945;BME280;64628;50.104;14.614;2023-07-13T12:48:44;98506.81;;;30.93;19.24
75945;BME280;64628;50.104;14.614;2023-07-13T12:51:11;98507.76;;;31.33;19.12
75945;BME280;64628;50.104;14.614;2023-07-13T12:53:40;98502.44;;;31.68;19.50